sensor_id;sensor_type;location;lat;lon;timestamp;P1;durP1;ratioP1;P2;durP2;ratioP2
19285;SDS011;9776;50.798;6.430;2023-04-16T00:01:46;2.92;;;2.72;;
19285;SDS011;9776;50.798;6.430;2023-04-16T00:04:13;3.10;;;2.83;;
19285;SDS011;9776;50.798;6.430;2023-04-16T00:06:39;2.95;;;2.75;;
19285;SDS011;9776;50.798;6.430;2023-04-16T00:09:06;2.53;;;2.42;;
19285;SDS011;9776;50.798;6.430;2023-04-16T00:11:33;2.95;;;2.75;;
19285;SDS011;9776;50.798;6.430;2023-04-16T00:13:59;3.00;;;2.80;;
19285;SDS011;9776;50.798;6.430;2023-04-16T00:16:27;2.67;;;2.47;;
19285;SDS011;9776;50.798;6.430;2023-04-16T00:18:54;2.60;;;2.40;;
19285;SDS011;9776;50.798;6.430;2023-04-16T00:21:21;3.05;;;2.78;;
19285;SDS011;9776;50.798;6.430;2023-04-16T00:23:47;2.85;;;2.65;;
19285;SDS011;9776;50.798;6.430;2023-04-16T00:26:14;3.17;;;2.83;;
19285;SDS011;9776;50.798;6.430;2023-04-16T00:28:41;3.22;;;3.03;;
19285;SDS011;9776;50.798;6.430;2023-04-16T00:31:07;2.70;;;2.50;;
19285;SDS011;9776;50.798;6.430;2023-04-16T00:33:35;2.90;;;2.70;;
19285;SDS011;9776;50.798;6.430;2023-04-16T00:36:02;3.15;;;2.85;;
19285;SDS011;9776;50.798;6.430;2023-04-16T00:38:29;2.90;;;2.60;;
19285;SDS011;9776;50.798;6.430;2023-04-16T00:40:56;3.60;;;3.30;;
19285;SDS011;9776;50.798;6.430;2023-04-16T00:43:24;3.38;;;2.92;;
19285;SDS011;9776;50.798;6.430;2023-04-16T00:45:52;3.10;;;2.90;;
19285;SDS011;9776;50.798;6.430;2023-04-16T00:48:21;3.40;;;3.10;;
19285;SDS011;9776;50.798;6.430;2023-04-16T00:50:50;3.30;;;3.00;;
19285;SDS011;9776;50.798;6.430;2023-04-16T00:53:17;3.22;;;2.83;;
19285;SDS011;9776;50.798;6.430;2023-04-16T00:55:44;3.72;;;3.00;;
19285;SDS011;9776;50.798;6.430;2023-04-16T00:58:11;3.20;;;3.00;;
19285;SDS011;9776;50.798;6.430;2023-04-16T01:00:38;2.97;;;2.78;;
19285;SDS011;9776;50.798;6.430;2023-04-16T01:03:05;3.38;;;3.08;;
19285;SDS011;9776;50.798;6.430;2023-04-16T01:05:32;3.20;;;2.90;;
19285;SDS011;9776;50.798;6.430;2023-04-16T01:08:00;3.50;;;3.20;;
19285;SDS011;9776;50.798;6.430;2023-04-16T01:10:26;3.22;;;2.97;;
19285;SDS011;9776;50.798;6.430;2023-04-16T01:12:53;2.80;;;2.60;;
19285;SDS011;9776;50.798;6.430;2023-04-16T01:15:20;3.10;;;2.85;;
19285;SDS011;9776;50.798;6.430;2023-04-16T01:17:46;3.58;;;3.28;;
19285;SDS011;9776;50.798;6.430;2023-04-16T01:20:13;3.70;;;2.78;;
19285;SDS011;9776;50.798;6.430;2023-04-16T01:22:41;3.72;;;3.17;;
19285;SDS011;9776;50.798;6.430;2023-04-16T01:25:12;3.17;;;2.90;;
19285;SDS011;9776;50.798;6.430;2023-04-16T01:27:39;3.13;;;2.83;;
19285;SDS011;9776;50.798;6.430;2023-04-16T01:30:06;4.10;;;3.08;;
19285;SDS011;9776;50.798;6.430;2023-04-16T01:32:33;3.35;;;3.05;;
19285;SDS011;9776;50.798;6.430;2023-04-16T01:35:00;2.97;;;2.78;;
19285;SDS011;9776;50.798;6.430;2023-04-16T01:37:27;3.30;;;3.00;;
19285;SDS011;9776;50.798;6.430;2023-04-16T01:39:55;3.38;;;3.08;;
19285;SDS011;9776;50.798;6.430;2023-04-16T01:42:22;2.90;;;2.70;;
19285;SDS011;9776;50.798;6.430;2023-04-16T01:44:48;3.55;;;3.08;;
19285;SDS011;9776;50.798;6.430;2023-04-16T01:47:15;3.20;;;2.90;;
19285;SDS011;9776;50.798;6.430;2023-04-16T01:49:42;3.88;;;3.58;;
19285;SDS011;9776;50.798;6.430;2023-04-16T01:52:09;3.53;;;3.22;;
19285;SDS011;9776;50.798;6.430;2023-04-16T01:54:36;3.13;;;2.92;;
19285;SDS011;9776;50.798;6.430;2023-04-16T01:57:04;3.55;;;3.25;;
19285;SDS011;9776;50.798;6.430;2023-04-16T01:59:31;3.15;;;2.90;;
19285;SDS011;9776;50.798;6.430;2023-04-16T02:01:58;2.95;;;2.75;;
19285;SDS011;9776;50.798;6.430;2023-04-16T02:04:29;3.47;;;3.25;;
19285;SDS011;9776;50.798;6.430;2023-04-16T02:06:57;3.67;;;3.33;;
19285;SDS011;9776;50.798;6.430;2023-04-16T02:09:23;3.53;;;3.22;;
19285;SDS011;9776;50.798;6.430;2023-04-16T02:11:50;3.67;;;3.38;;
19285;SDS011;9776;50.798;6.430;2023-04-16T02:14:18;3.33;;;3.13;;
19285;SDS011;9776;50.798;6.430;2023-04-16T02:16:46;3.63;;;3.33;;
19285;SDS011;9776;50.798;6.430;2023-04-16T02:19:12;3.95;;;3.65;;
19285;SDS011;9776;50.798;6.430;2023-04-16T02:21:39;3.65;;;3.42;;
19285;SDS011;9776;50.798;6.430;2023-04-16T02:24:05;3.53;;;3.22;;
19285;SDS011;9776;50.798;6.430;2023-04-16T02:26:32;3.42;;;3.17;;
19285;SDS011;9776;50.798;6.430;2023-04-16T02:28:59;3.70;;;3.40;;
19285;SDS011;9776;50.798;6.430;2023-04-16T02:31:27;3.35;;;3.15;;
19285;SDS011;9776;50.798;6.430;2023-04-16T02:33:54;3.70;;;3.40;;
19285;SDS011;9776;50.798;6.430;2023-04-16T02:36:21;4.07;;;3.78;;
19285;SDS011;9776;50.798;6.430;2023-04-16T02:38:48;3.83;;;3.35;;
19285;SDS011;9776;50.798;6.430;2023-04-16T02:41:14;4.15;;;3.85;;
19285;SDS011;9776;50.798;6.430;2023-04-16T02:43:41;4.15;;;3.80;;
19285;SDS011;9776;50.798;6.430;2023-04-16T02:46:08;4.00;;;3.50;;
19285;SDS011;9776;50.798;6.430;2023-04-16T02:48:36;3.88;;;3.58;;
19285;SDS011;9776;50.798;6.430;2023-04-16T02:51:02;4.13;;;3.83;;
19285;SDS011;9776;50.798;6.430;2023-04-16T02:53:30;4.82;;;4.35;;
19285;SDS011;9776;50.798;6.430;2023-04-16T02:55:56;3.80;;;3.53;;
19285;SDS011;9776;50.798;6.430;2023-04-16T02:58:23;4.30;;;3.90;;
19285;SDS011;9776;50.798;6.430;2023-04-16T03:00:51;4.07;;;3.78;;
19285;SDS011;9776;50.798;6.430;2023-04-16T03:03:18;4.32;;;4.03;;
19285;SDS011;9776;50.798;6.430;2023-04-16T03:05:47;4.20;;;3.90;;
19285;SDS011;9776;50.798;6.430;2023-04-16T03:08:14;4.60;;;4.05;;
19285;SDS011;9776;50.798;6.430;2023-04-16T03:10:41;4.78;;;4.38;;
19285;SDS011;9776;50.798;6.430;2023-04-16T03:13:07;4.25;;;3.95;;
19285;SDS011;9776;50.798;6.430;2023-04-16T03:15:34;4.40;;;4.10;;
19285;SDS011;9776;50.798;6.430;2023-04-16T03:18:00;4.65;;;4.35;;
19285;SDS011;9776;50.798;6.430;2023-04-16T03:20:27;4.93;;;4.53;;
19285;SDS011;9776;50.798;6.430;2023-04-16T03:22:55;4.55;;;4.15;;
19285;SDS011;9776;50.798;6.430;2023-04-16T03:25:22;4.10;;;3.83;;
19285;SDS011;9776;50.798;6.430;2023-04-16T03:27:48;5.40;;;5.00;;
19285;SDS011;9776;50.798;6.430;2023-04-16T03:30:15;4.30;;;4.00;;
19285;SDS011;9776;50.798;6.430;2023-04-16T03:32:42;4.45;;;4.10;;
19285;SDS011;9776;50.798;6.430;2023-04-16T03:35:09;4.25;;;3.95;;
19285;SDS011;9776;50.798;6.430;2023-04-16T03:37:36;4.88;;;4.47;;
19285;SDS011;9776;50.798;6.430;2023-04-16T03:40:05;4.10;;;3.80;;
19285;SDS011;9776;50.798;6.430;2023-04-16T03:42:32;4.60;;;4.30;;
19285;SDS011;9776;50.798;6.430;2023-04-16T03:44:59;4.93;;;4.50;;
19285;SDS011;9776;50.798;6.430;2023-04-16T03:47:25;4.43;;;4.13;;
19285;SDS011;9776;50.798;6.430;2023-04-16T03:49:52;4.25;;;3.95;;
19285;SDS011;9776;50.798;6.430;2023-04-16T03:52:19;4.38;;;4.07;;
19285;SDS011;9776;50.798;6.430;2023-04-16T03:54:45;4.50;;;4.20;;
19285;SDS011;9776;50.798;6.430;2023-04-16T03:57:13;4.70;;;4.30;;
19285;SDS011;9776;50.798;6.430;2023-04-16T03:59:40;4.45;;;4.07;;
19285;SDS011;9776;50.798;6.430;2023-04-16T04:02:06;4.28;;;3.97;;
19285;SDS011;9776;50.798;6.430;2023-04-16T04:04:33;4.32;;;4.03;;
19285;SDS011;9776;50.798;6.430;2023-04-16T04:07:00;4.70;;;4.40;;
19285;SDS011;9776;50.798;6.430;2023-04-16T04:09:26;4.13;;;3.83;;
19285;SDS011;9776;50.798;6.430;2023-04-16T04:11:53;4.20;;;3.92;;
19285;SDS011;9776;50.798;6.430;2023-04-16T04:14:21;4.90;;;4.50;;
19285;SDS011;9776;50.798;6.430;2023-04-16T04:16:48;4.80;;;4.50;;
19285;SDS011;9776;50.798;6.430;2023-04-16T04:19:14;4.45;;;4.15;;
19285;SDS011;9776;50.798;6.430;2023-04-16T04:21:41;4.80;;;4.50;;
19285;SDS011;9776;50.798;6.430;2023-04-16T04:24:07;4.80;;;4.32;;
19285;SDS011;9776;50.798;6.430;2023-04-16T04:26:34;5.03;;;4.63;;
19285;SDS011;9776;50.798;6.430;2023-04-16T04:29:01;5.35;;;4.95;;
19285;SDS011;9776;50.798;6.430;2023-04-16T04:31:30;4.85;;;4.55;;
19285;SDS011;9776;50.798;6.430;2023-04-16T04:33:57;4.88;;;4.55;;
19285;SDS011;9776;50.798;6.430;2023-04-16T04:36:23;5.63;;;5.22;;
19285;SDS011;9776;50.798;6.430;2023-04-16T04:38:51;4.72;;;4.43;;
19285;SDS011;9776;50.798;6.430;2023-04-16T04:41:17;5.60;;;5.20;;
19285;SDS011;9776;50.798;6.430;2023-04-16T04:43:45;4.75;;;4.45;;
19285;SDS011;9776;50.798;6.430;2023-04-16T04:46:12;4.55;;;4.25;;
19285;SDS011;9776;50.798;6.430;2023-04-16T04:48:40;4.50;;;4.20;;
19285;SDS011;9776;50.798;6.430;2023-04-16T04:51:06;4.40;;;4.10;;
19285;SDS011;9776;50.798;6.430;2023-04-16T04:53:33;4.68;;;4.32;;
19285;SDS011;9776;50.798;6.430;2023-04-16T04:56:00;4.55;;;4.25;;
19285;SDS011;9776;50.798;6.430;2023-04-16T04:58:26;4.50;;;4.20;;
19285;SDS011;9776;50.798;6.430;2023-04-16T05:00:53;4.60;;;4.30;;
19285;SDS011;9776;50.798;6.430;2023-04-16T05:03:20;4.97;;;4.57;;
19285;SDS011;9776;50.798;6.430;2023-04-16T05:05:48;4.22;;;3.92;;
19285;SDS011;9776;50.798;6.430;2023-04-16T05:08:15;4.20;;;3.90;;
19285;SDS011;9776;50.798;6.430;2023-04-16T05:10:41;4.25;;;3.95;;
19285;SDS011;9776;50.798;6.430;2023-04-16T05:13:08;4.20;;;3.90;;
19285;SDS011;9776;50.798;6.430;2023-04-16T05:15:35;4.13;;;3.83;;
19285;SDS011;9776;50.798;6.430;2023-04-16T05:18:02;4.70;;;4.40;;
19285;SDS011;9776;50.798;6.430;2023-04-16T05:20:28;4.55;;;4.25;;
19285;SDS011;9776;50.798;6.430;2023-04-16T05:22:56;4.20;;;3.97;;
19285;SDS011;9776;50.798;6.430;2023-04-16T05:25:23;4.30;;;4.00;;
19285;SDS011;9776;50.798;6.430;2023-04-16T05:27:50;4.95;;;4.65;;
19285;SDS011;9776;50.798;6.430;2023-04-16T05:30:16;4.78;;;4.47;;
19285;SDS011;9776;50.798;6.430;2023-04-16T05:32:43;4.93;;;4.60;;
19285;SDS011;9776;50.798;6.430;2023-04-16T05:35:10;4.68;;;4.38;;
19285;SDS011;9776;50.798;6.430;2023-04-16T05:37:37;4.22;;;4.00;;
19285;SDS011;9776;50.798;6.430;2023-04-16T05:40:05;4.50;;;4.20;;
19285;SDS011;9776;50.798;6.430;2023-04-16T05:42:34;4.90;;;4.60;;
19285;SDS011;9776;50.798;6.430;2023-04-16T05:45:01;4.32;;;4.03;;
19285;SDS011;9776;50.798;6.430;2023-04-16T05:47:28;4.85;;;4.55;;
19285;SDS011;9776;50.798;6.430;2023-04-16T05:49:55;4.22;;;3.92;;
19285;SDS011;9776;50.798;6.430;2023-04-16T05:52:22;4.45;;;4.15;;
19285;SDS011;9776;50.798;6.430;2023-04-16T05:54:48;4.38;;;4.18;;
19285;SDS011;9776;50.798;6.430;2023-04-16T05:57:16;4.28;;;3.97;;
19285;SDS011;9776;50.798;6.430;2023-04-16T05:59:43;4.10;;;3.80;;
19285;SDS011;9776;50.798;6.430;2023-04-16T06:02:09;4.20;;;3.90;;
19285;SDS011;9776;50.798;6.430;2023-04-16T06:04:36;4.57;;;4.28;;
19285;SDS011;9776;50.798;6.430;2023-04-16T06:07:03;4.80;;;4.50;;
19285;SDS011;9776;50.798;6.430;2023-04-16T06:09:29;4.50;;;4.20;;
19285;SDS011;9776;50.798;6.430;2023-04-16T06:11:56;4.50;;;4.20;;
19285;SDS011;9776;50.798;6.430;2023-04-16T06:14:24;4.40;;;4.10;;
19285;SDS011;9776;50.798;6.430;2023-04-16T06:16:51;4.45;;;4.22;;
19285;SDS011;9776;50.798;6.430;2023-04-16T06:19:17;4.47;;;4.18;;
19285;SDS011;9776;50.798;6.430;2023-04-16T06:21:44;4.10;;;3.90;;
19285;SDS011;9776;50.798;6.430;2023-04-16T06:24:11;3.85;;;3.65;;
19285;SDS011;9776;50.798;6.430;2023-04-16T06:26:38;4.18;;;3.90;;
19285;SDS011;9776;50.798;6.430;2023-04-16T06:29:04;4.82;;;4.53;;
19285;SDS011;9776;50.798;6.430;2023-04-16T06:31:32;4.20;;;4.00;;
19285;SDS011;9776;50.798;6.430;2023-04-16T06:33:59;4.10;;;3.80;;
19285;SDS011;9776;50.798;6.430;2023-04-16T06:36:26;4.60;;;4.30;;
19285;SDS011;9776;50.798;6.430;2023-04-16T06:38:53;4.05;;;3.75;;
19285;SDS011;9776;50.798;6.430;2023-04-16T06:41:19;3.90;;;3.70;;
19285;SDS011;9776;50.798;6.430;2023-04-16T06:43:49;3.60;;;3.40;;
19285;SDS011;9776;50.798;6.430;2023-04-16T06:46:16;4.40;;;4.10;;
19285;SDS011;9776;50.798;6.430;2023-04-16T06:48:44;4.20;;;3.90;;
19285;SDS011;9776;50.798;6.430;2023-04-16T06:51:11;3.75;;;3.55;;
19285;SDS011;9776;50.798;6.430;2023-04-16T06:53:38;3.88;;;3.67;;
19285;SDS011;9776;50.798;6.430;2023-04-16T06:56:05;3.80;;;3.60;;
19285;SDS011;9776;50.798;6.430;2023-04-16T06:58:32;3.83;;;3.60;;
19285;SDS011;9776;50.798;6.430;2023-04-16T07:00:59;3.75;;;3.55;;
19285;SDS011;9776;50.798;6.430;2023-04-16T07:03:26;3.63;;;3.42;;
19285;SDS011;9776;50.798;6.430;2023-04-16T07:05:55;3.63;;;3.42;;
19285;SDS011;9776;50.798;6.430;2023-04-16T07:08:21;3.47;;;3.28;;
19285;SDS011;9776;50.798;6.430;2023-04-16T07:10:48;3.85;;;3.65;;
19285;SDS011;9776;50.798;6.430;2023-04-16T07:13:16;3.70;;;3.50;;
19285;SDS011;9776;50.798;6.430;2023-04-16T07:15:43;3.72;;;3.42;;
19285;SDS011;9776;50.798;6.430;2023-04-16T07:18:10;3.20;;;3.00;;
19285;SDS011;9776;50.798;6.430;2023-04-16T07:20:36;3.40;;;3.20;;
19285;SDS011;9776;50.798;6.430;2023-04-16T07:23:04;3.65;;;3.45;;
19285;SDS011;9776;50.798;6.430;2023-04-16T07:25:31;3.30;;;3.10;;
19285;SDS011;9776;50.798;6.430;2023-04-16T07:27:58;3.42;;;3.20;;
19285;SDS011;9776;50.798;6.430;2023-04-16T07:30:24;3.30;;;3.10;;
19285;SDS011;9776;50.798;6.430;2023-04-16T07:32:56;3.53;;;3.33;;
19285;SDS011;9776;50.798;6.430;2023-04-16T07:35:23;3.53;;;3.33;;
19285;SDS011;9776;50.798;6.430;2023-04-16T07:37:50;3.22;;;3.03;;
19285;SDS011;9776;50.798;6.430;2023-04-16T07:40:18;3.50;;;3.30;;
19285;SDS011;9776;50.798;6.430;2023-04-16T07:42:44;4.30;;;4.00;;
19285;SDS011;9776;50.798;6.430;2023-04-16T07:45:11;3.65;;;3.45;;
19285;SDS011;9776;50.798;6.430;2023-04-16T07:47:38;3.72;;;3.53;;
19285;SDS011;9776;50.798;6.430;2023-04-16T07:50:05;3.58;;;3.38;;
19285;SDS011;9776;50.798;6.430;2023-04-16T07:52:33;3.97;;;3.78;;
19285;SDS011;9776;50.798;6.430;2023-04-16T07:54:59;4.05;;;3.78;;
19285;SDS011;9776;50.798;6.430;2023-04-16T07:57:28;4.25;;;3.95;;
19285;SDS011;9776;50.798;6.430;2023-04-16T07:59:54;4.22;;;4.03;;
19285;SDS011;9776;50.798;6.430;2023-04-16T08:02:21;4.20;;;3.90;;
19285;SDS011;9776;50.798;6.430;2023-04-16T08:04:48;4.47;;;4.20;;
19285;SDS011;9776;50.798;6.430;2023-04-16T08:07:14;4.60;;;4.30;;
19285;SDS011;9776;50.798;6.430;2023-04-16T08:09:47;4.55;;;4.13;;
19285;SDS011;9776;50.798;6.430;2023-04-16T08:12:16;4.47;;;4.18;;
19285;SDS011;9776;50.798;6.430;2023-04-16T08:14:44;4.60;;;4.30;;
19285;SDS011;9776;50.798;6.430;2023-04-16T08:17:11;5.10;;;4.68;;
19285;SDS011;9776;50.798;6.430;2023-04-16T08:19:39;5.15;;;4.82;;
19285;SDS011;9776;50.798;6.430;2023-04-16T08:22:05;5.57;;;5.18;;
19285;SDS011;9776;50.798;6.430;2023-04-16T08:24:32;5.35;;;4.97;;
19285;SDS011;9776;50.798;6.430;2023-04-16T08:26:59;5.45;;;5.05;;
19285;SDS011;9776;50.798;6.430;2023-04-16T08:29:25;5.28;;;4.97;;
19285;SDS011;9776;50.798;6.430;2023-04-16T08:31:53;5.93;;;5.45;;
19285;SDS011;9776;50.798;6.430;2023-04-16T08:34:20;6.38;;;5.88;;
19285;SDS011;9776;50.798;6.430;2023-04-16T08:36:47;6.55;;;6.05;;
19285;SDS011;9776;50.798;6.430;2023-04-16T08:39:13;7.07;;;6.47;;
19285;SDS011;9776;50.798;6.430;2023-04-16T08:41:41;6.90;;;6.30;;
19285;SDS011;9776;50.798;6.430;2023-04-16T08:44:10;7.30;;;6.72;;
19285;SDS011;9776;50.798;6.430;2023-04-16T08:46:42;6.60;;;6.10;;
19285;SDS011;9776;50.798;6.430;2023-04-16T08:49:13;6.70;;;6.20;;
19285;SDS011;9776;50.798;6.430;2023-04-16T08:51:46;8.45;;;7.75;;
19285;SDS011;9776;50.798;6.430;2023-04-16T08:54:18;8.43;;;7.72;;
19285;SDS011;9776;50.798;6.430;2023-04-16T08:56:56;7.63;;;7.03;;
19285;SDS011;9776;50.798;6.430;2023-04-16T08:59:24;7.50;;;6.82;;
19285;SDS011;9776;50.798;6.430;2023-04-16T09:01:52;7.25;;;6.55;;
19285;SDS011;9776;50.798;6.430;2023-04-16T09:04:24;7.18;;;6.47;;
19285;SDS011;9776;50.798;6.430;2023-04-16T09:06:52;7.05;;;6.45;;
19285;SDS011;9776;50.798;6.430;2023-04-16T09:09:20;7.13;;;6.53;;
19285;SDS011;9776;50.798;6.430;2023-04-16T09:11:49;7.63;;;6.97;;
19285;SDS011;9776;50.798;6.430;2023-04-16T09:14:18;7.40;;;6.80;;
19285;SDS011;9776;50.798;6.430;2023-04-16T09:16:46;6.72;;;6.13;;
19285;SDS011;9776;50.798;6.430;2023-04-16T09:19:14;6.95;;;6.35;;
19285;SDS011;9776;50.798;6.430;2023-04-16T09:21:43;6.85;;;6.22;;
19285;SDS011;9776;50.798;6.430;2023-04-16T09:24:11;6.63;;;6.03;;
19285;SDS011;9776;50.798;6.430;2023-04-16T09:26:39;6.45;;;5.95;;
19285;SDS011;9776;50.798;6.430;2023-04-16T09:29:07;6.35;;;5.90;;
19285;SDS011;9776;50.798;6.430;2023-04-16T09:31:34;7.18;;;6.57;;
19285;SDS011;9776;50.798;6.430;2023-04-16T09:34:01;6.47;;;5.88;;
19285;SDS011;9776;50.798;6.430;2023-04-16T09:36:29;7.30;;;6.70;;
19285;SDS011;9776;50.798;6.430;2023-04-16T09:38:58;6.97;;;6.38;;
19285;SDS011;9776;50.798;6.430;2023-04-16T09:41:26;6.63;;;6.03;;
19285;SDS011;9776;50.798;6.430;2023-04-16T09:43:56;6.97;;;6.38;;
19285;SDS011;9776;50.798;6.430;2023-04-16T09:46:28;6.25;;;5.75;;
19285;SDS011;9776;50.798;6.430;2023-04-16T09:48:57;6.85;;;6.35;;
19285;SDS011;9776;50.798;6.430;2023-04-16T09:51:35;7.03;;;6.43;;
19285;SDS011;9776;50.798;6.430;2023-04-16T09:54:06;6.93;;;6.35;;
19285;SDS011;9776;50.798;6.430;2023-04-16T09:56:38;7.25;;;6.68;;
19285;SDS011;9776;50.798;6.430;2023-04-16T09:59:07;6.63;;;6.10;;
19285;SDS011;9776;50.798;6.430;2023-04-16T10:01:41;6.50;;;5.90;;
19285;SDS011;9776;50.798;6.430;2023-04-16T10:04:10;7.18;;;6.57;;
19285;SDS011;9776;50.798;6.430;2023-04-16T10:06:38;6.80;;;6.20;;
19285;SDS011;9776;50.798;6.430;2023-04-16T10:09:09;6.40;;;5.90;;
19285;SDS011;9776;50.798;6.430;2023-04-16T10:11:36;5.88;;;5.38;;
19285;SDS011;9776;50.798;6.430;2023-04-16T10:14:03;6.78;;;6.18;;
19285;SDS011;9776;50.798;6.430;2023-04-16T10:16:30;6.72;;;6.22;;
19285;SDS011;9776;50.798;6.430;2023-04-16T10:18:58;6.93;;;6.38;;
19285;SDS011;9776;50.798;6.430;2023-04-16T10:21:25;6.38;;;5.88;;
19285;SDS011;9776;50.798;6.430;2023-04-16T10:23:57;7.22;;;6.57;;
19285;SDS011;9776;50.798;6.430;2023-04-16T10:26:25;7.63;;;6.93;;
19285;SDS011;9776;50.798;6.430;2023-04-16T10:28:54;7.97;;;7.28;;
19285;SDS011;9776;50.798;6.430;2023-04-16T10:31:21;7.90;;;7.20;;
19285;SDS011;9776;50.798;6.430;2023-04-16T10:33:48;7.90;;;7.20;;
19285;SDS011;9776;50.798;6.430;2023-04-16T10:36:21;8.15;;;7.35;;
19285;SDS011;9776;50.798;6.430;2023-04-16T10:38:49;8.07;;;7.38;;
19285;SDS011;9776;50.798;6.430;2023-04-16T10:41:18;8.60;;;7.80;;
19285;SDS011;9776;50.798;6.430;2023-04-16T10:43:47;8.05;;;7.25;;
19285;SDS011;9776;50.798;6.430;2023-04-16T10:46:19;8.85;;;8.05;;
19285;SDS011;9776;50.798;6.430;2023-04-16T10:48:47;8.55;;;7.85;;
19285;SDS011;9776;50.798;6.430;2023-04-16T10:51:26;8.82;;;8.07;;
19285;SDS011;9776;50.798;6.430;2023-04-16T10:53:54;7.95;;;7.25;;
19285;SDS011;9776;50.798;6.430;2023-04-16T10:56:22;8.77;;;7.97;;
19285;SDS011;9776;50.798;6.430;2023-04-16T10:58:51;8.93;;;8.13;;
19285;SDS011;9776;50.798;6.430;2023-04-16T11:01:21;8.52;;;7.82;;
19285;SDS011;9776;50.798;6.430;2023-04-16T11:03:55;8.27;;;7.55;;
19285;SDS011;9776;50.798;6.430;2023-04-16T11:06:23;8.55;;;7.75;;
19285;SDS011;9776;50.798;6.430;2023-04-16T11:08:51;7.63;;;7.03;;
19285;SDS011;9776;50.798;6.430;2023-04-16T11:11:18;7.90;;;7.20;;
19285;SDS011;9776;50.798;6.430;2023-04-16T11:13:46;8.32;;;7.65;;
19285;SDS011;9776;50.798;6.430;2023-04-16T11:16:14;8.30;;;7.50;;
19285;SDS011;9776;50.798;6.430;2023-04-16T11:18:43;8.25;;;7.45;;
19285;SDS011;9776;50.798;6.430;2023-04-16T11:21:11;7.97;;;7.32;;
19285;SDS011;9776;50.798;6.430;2023-04-16T11:23:44;7.10;;;6.50;;
19285;SDS011;9776;50.798;6.430;2023-04-16T11:26:24;7.57;;;6.97;;
19285;SDS011;9776;50.798;6.430;2023-04-16T11:28:52;7.20;;;6.60;;
19285;SDS011;9776;50.798;6.430;2023-04-16T11:31:22;7.53;;;6.93;;
19285;SDS011;9776;50.798;6.430;2023-04-16T11:33:51;7.28;;;6.68;;
19285;SDS011;9776;50.798;6.430;2023-04-16T11:36:18;7.72;;;7.07;;
19285;SDS011;9776;50.798;6.430;2023-04-16T11:38:45;7.72;;;7.03;;
19285;SDS011;9776;50.798;6.430;2023-04-16T11:41:18;8.25;;;7.47;;
19285;SDS011;9776;50.798;6.430;2023-04-16T11:43:46;9.07;;;8.27;;
19285;SDS011;9776;50.798;6.430;2023-04-16T11:46:13;7.85;;;7.25;;
19285;SDS011;9776;50.798;6.430;2023-04-16T11:48:48;8.13;;;7.43;;
19285;SDS011;9776;50.798;6.430;2023-04-16T11:51:16;7.75;;;7.05;;
19285;SDS011;9776;50.798;6.430;2023-04-16T11:53:47;7.45;;;6.75;;
19285;SDS011;9776;50.798;6.430;2023-04-16T11:56:24;7.50;;;6.90;;
19285;SDS011;9776;50.798;6.430;2023-04-16T11:59:05;6.43;;;5.88;;
19285;SDS011;9776;50.798;6.430;2023-04-16T12:01:33;7.20;;;6.60;;
19285;SDS011;9776;50.798;6.430;2023-04-16T12:04:02;6.10;;;5.60;;
19285;SDS011;9776;50.798;6.430;2023-04-16T12:06:29;7.20;;;6.60;;
19285;SDS011;9776;50.798;6.430;2023-04-16T12:08:57;6.68;;;6.18;;
19285;SDS011;9776;50.798;6.430;2023-04-16T12:11:36;6.53;;;6.03;;
19285;SDS011;9776;50.798;6.430;2023-04-16T12:14:07;6.55;;;6.00;;
19285;SDS011;9776;50.798;6.430;2023-04-16T12:16:34;5.93;;;5.50;;
19285;SDS011;9776;50.798;6.430;2023-04-16T12:19:01;7.13;;;6.53;;
19285;SDS011;9776;50.798;6.430;2023-04-16T12:21:40;7.07;;;6.47;;
19285;SDS011;9776;50.798;6.430;2023-04-16T12:24:08;7.70;;;7.10;;
19285;SDS011;9776;50.798;6.430;2023-04-16T12:26:38;6.30;;;5.80;;
19285;SDS011;9776;50.798;6.430;2023-04-16T12:29:13;7.47;;;6.88;;
19285;SDS011;9776;50.798;6.430;2023-04-16T12:31:41;7.25;;;6.65;;
19285;SDS011;9776;50.798;6.430;2023-04-16T12:34:09;6.60;;;6.00;;
19285;SDS011;9776;50.798;6.430;2023-04-16T12:36:36;7.00;;;6.40;;
19285;SDS011;9776;50.798;6.430;2023-04-16T12:39:02;6.68;;;6.18;;
19285;SDS011;9776;50.798;6.430;2023-04-16T12:41:30;6.60;;;6.00;;
19285;SDS011;9776;50.798;6.430;2023-04-16T12:44:03;6.80;;;6.20;;
19285;SDS011;9776;50.798;6.430;2023-04-16T12:46:33;6.93;;;6.32;;
19285;SDS011;9776;50.798;6.430;2023-04-16T12:49:00;6.03;;;5.55;;
19285;SDS011;9776;50.798;6.430;2023-04-16T12:51:28;6.65;;;6.15;;
19285;SDS011;9776;50.798;6.430;2023-04-16T12:53:55;6.47;;;5.97;;
19285;SDS011;9776;50.798;6.430;2023-04-16T12:56:22;6.47;;;5.97;;
19285;SDS011;9776;50.798;6.430;2023-04-16T12:58:49;6.53;;;6.03;;
19285;SDS011;9776;50.798;6.430;2023-04-16T13:01:16;6.68;;;6.18;;
19285;SDS011;9776;50.798;6.430;2023-04-16T13:03:43;6.90;;;6.38;;
19285;SDS011;9776;50.798;6.430;2023-04-16T13:06:10;6.47;;;5.97;;
19285;SDS011;9776;50.798;6.430;2023-04-16T13:08:39;6.93;;;6.43;;
19285;SDS011;9776;50.798;6.430;2023-04-16T13:11:06;7.00;;;6.40;;
19285;SDS011;9776;50.798;6.430;2023-04-16T13:13:33;7.47;;;6.88;;
19285;SDS011;9776;50.798;6.430;2023-04-16T13:16:00;6.57;;;6.13;;
19285;SDS011;9776;50.798;6.430;2023-04-16T13:18:30;6.85;;;6.35;;
19285;SDS011;9776;50.798;6.430;2023-04-16T13:20:57;6.55;;;5.97;;
19285;SDS011;9776;50.798;6.430;2023-04-16T13:23:24;6.50;;;6.00;;
19285;SDS011;9776;50.798;6.430;2023-04-16T13:25:52;6.55;;;6.05;;
19285;SDS011;9776;50.798;6.430;2023-04-16T13:28:19;6.97;;;6.47;;
19285;SDS011;9776;50.798;6.430;2023-04-16T13:30:46;6.90;;;6.40;;
19285;SDS011;9776;50.798;6.430;2023-04-16T13:33:13;6.20;;;5.60;;
19285;SDS011;9776;50.798;6.430;2023-04-16T13:35:39;6.70;;;6.20;;
19285;SDS011;9776;50.798;6.430;2023-04-16T13:38:06;6.43;;;5.90;;
19285;SDS011;9776;50.798;6.430;2023-04-16T13:40:33;6.38;;;5.90;;
19285;SDS011;9776;50.798;6.430;2023-04-16T13:43:01;6.85;;;6.25;;
19285;SDS011;9776;50.798;6.430;2023-04-16T13:45:28;6.53;;;6.03;;
19285;SDS011;9776;50.798;6.430;2023-04-16T13:47:54;6.53;;;5.93;;
19285;SDS011;9776;50.798;6.430;2023-04-16T13:50:21;6.13;;;5.72;;
19285;SDS011;9776;50.798;6.430;2023-04-16T13:52:48;6.35;;;5.88;;
19285;SDS011;9776;50.798;6.430;2023-04-16T13:55:15;6.50;;;6.00;;
19285;SDS011;9776;50.798;6.430;2023-04-16T13:57:43;7.07;;;5.93;;
19285;SDS011;9776;50.798;6.430;2023-04-16T14:00:13;5.70;;;5.30;;
19285;SDS011;9776;50.798;6.430;2023-04-16T14:02:40;5.97;;;5.47;;
19285;SDS011;9776;50.798;6.430;2023-04-16T14:05:09;6.18;;;5.68;;
19285;SDS011;9776;50.798;6.430;2023-04-16T14:07:37;6.30;;;5.80;;
19285;SDS011;9776;50.798;6.430;2023-04-16T14:10:03;6.45;;;5.95;;
19285;SDS011;9776;50.798;6.430;2023-04-16T14:12:31;6.40;;;5.90;;
19285;SDS011;9776;50.798;6.430;2023-04-16T14:14:57;7.57;;;6.97;;
19285;SDS011;9776;50.798;6.430;2023-04-16T14:17:25;6.45;;;5.95;;
19285;SDS011;9776;50.798;6.430;2023-04-16T14:19:52;6.78;;;6.28;;
19285;SDS011;9776;50.798;6.430;2023-04-16T14:22:19;6.68;;;6.18;;
19285;SDS011;9776;50.798;6.430;2023-04-16T14:24:45;6.65;;;6.15;;
19285;SDS011;9776;50.798;6.430;2023-04-16T14:27:12;6.47;;;5.97;;
19285;SDS011;9776;50.798;6.430;2023-04-16T14:29:39;6.60;;;6.07;;
19285;SDS011;9776;50.798;6.430;2023-04-16T14:32:06;6.50;;;5.95;;
19285;SDS011;9776;50.798;6.430;2023-04-16T14:34:34;7.13;;;6.53;;
19285;SDS011;9776;50.798;6.430;2023-04-16T14:37:01;6.45;;;5.95;;
19285;SDS011;9776;50.798;6.430;2023-04-16T14:39:28;6.68;;;6.18;;
19285;SDS011;9776;50.798;6.430;2023-04-16T14:41:55;6.63;;;6.13;;
19285;SDS011;9776;50.798;6.430;2023-04-16T14:44:22;7.53;;;6.93;;
19285;SDS011;9776;50.798;6.430;2023-04-16T14:46:48;6.63;;;6.10;;
19285;SDS011;9776;50.798;6.430;2023-04-16T14:49:15;6.93;;;6.22;;
19285;SDS011;9776;50.798;6.430;2023-04-16T14:51:43;7.03;;;6.45;;
19285;SDS011;9776;50.798;6.430;2023-04-16T14:54:10;6.90;;;6.30;;
19285;SDS011;9776;50.798;6.430;2023-04-16T14:56:37;6.45;;;5.95;;
19285;SDS011;9776;50.798;6.430;2023-04-16T14:59:03;6.72;;;6.22;;
19285;SDS011;9776;50.798;6.430;2023-04-16T15:01:31;7.03;;;6.43;;
19285;SDS011;9776;50.798;6.430;2023-04-16T15:03:58;7.72;;;7.03;;